Time;durP1;ratioP1;P1;durP2;ratioP2;P2;SDS_P1;SDS_P2;PMS_P1;PMS_P2;Temp;Humidity;BMP_temperature;BMP_pressure;BME280_temperature;BME280_humidity;BME280_pressure;Samples;Min_cycle;Max_cycle;Signal;HPM_P1;HPM_P2
2021/07/12 00:01:08;;;;;;;3.85;1.55;;;14.70;99.90;;;;;;1895031;76;21097;-72
2021/07/12 00:03:35;;;;;;;3.37;1.30;;;14.60;99.90;;;;;;1926347;74;21076;-73
2021/07/12 00:06:01;;;;;;;1.92;1.47;;;14.60;99.90;;;;;;1895059;76;21098;-73
2021/07/12 00:08:27;;;;;;;4.60;1.70;;;14.60;99.90;;;;;;1925957;74;21087;-73
2021/07/12 00:10:53;;;;;;;2.90;1.37;;;14.50;99.90;;;;;;1895019;76;21140;-73
2021/07/12 00:13:19;;;;;;;2.00;1.57;;;14.50;99.90;;;;;;1925909;74;21150;-73
2021/07/12 00:15:45;;;;;;;2.58;1.75;;;14.50;99.90;;;;;;1895003;76;21188;-72
2021/07/12 00:18:11;;;;;;;2.40;1.62;;;14.40;99.90;;;;;;1926068;73;21146;-71
2021/07/12 00:20:37;;;;;;;1.60;1.50;;;14.40;99.90;;;;;;1894799;76;21139;-71
2021/07/12 00:23:04;;;;;;;9.05;1.42;;;14.50;99.90;;;;;;1925947;74;21549;-71
2021/07/12 00:25:30;;;;;;;3.47;1.27;;;14.50;99.90;;;;;;1894807;76;21606;-71
2021/07/12 00:27:56;;;;;;;2.10;1.52;;;14.40;99.90;;;;;;1925740;74;21468;-71
2021/07/12 00:30:22;;;;;;;4.47;1.62;;;14.40;99.90;;;;;;1894724;76;21143;-71
2021/07/12 00:32:48;;;;;;;3.40;2.02;;;14.40;99.90;;;;;;1926526;74;21529;-71
2021/07/12 00:35:14;;;;;;;1.65;1.40;;;14.30;99.90;;;;;;1894824;76;21119;-71
2021/07/12 00:37:40;;;;;;;2.70;1.67;;;14.40;99.90;;;;;;1926107;74;21037;-72
2021/07/12 00:40:06;;;;;;;2.02;1.82;;;14.30;99.90;;;;;;1894736;76;21070;-72
2021/07/12 00:42:32;;;;;;;6.65;1.70;;;14.30;99.90;;;;;;1926099;74;21189;-72
2021/07/12 00:44:59;;;;;;;4.03;1.60;;;14.30;99.90;;;;;;1894819;76;21131;-73
2021/07/12 00:47:25;;;;;;;1.98;1.60;;;14.30;99.90;;;;;;1926028;74;21044;-72
2021/07/12 00:49:51;;;;;;;2.22;1.60;;;14.20;99.90;;;;;;1894723;76;21069;-71
2021/07/12 00:52:17;;;;;;;1.57;1.47;;;14.20;99.90;;;;;;1925615;73;21092;-72
2021/07/12 00:54:43;;;;;;;1.75;1.65;;;14.20;99.90;;;;;;1894795;76;21148;-72
2021/07/12 00:57:09;;;;;;;1.40;1.30;;;14.20;99.90;;;;;;1925832;74;21150;-72
2021/07/12 00:59:35;;;;;;;3.20;1.50;;;14.20;99.90;;;;;;1889855;74;21043;-72
2021/07/12 01:02:02;;;;;;;2.55;1.52;;;14.10;99.90;;;;;;1926253;74;21154;-72
2021/07/12 01:04:28;;;;;;;2.25;1.37;;;14.10;99.90;;;;;;1888474;75;21155;-72
2021/07/12 01:06:54;;;;;;;2.58;1.62;;;14.00;99.90;;;;;;1923590;74;21083;-72
2021/07/12 01:09:20;;;;;;;3.20;1.57;;;14.00;99.90;;;;;;1894751;76;21047;-71
2021/07/12 01:11:46;;;;;;;3.87;1.70;;;14.00;99.90;;;;;;1925905;74;21157;-72
2021/07/12 01:14:12;;;;;;;3.22;1.70;;;14.00;99.90;;;;;;1894776;76;21594;-71
2021/07/12 01:16:39;;;;;;;3.08;1.75;;;14.00;99.90;;;;;;1926187;74;21145;-73
2021/07/12 01:19:13;;;;;;;1.87;1.42;;;14.00;99.90;;;;;;1894756;76;21150;-72
2021/07/12 01:21:37;;;;;;;3.58;1.47;;;13.90;99.90;;;;;;1923911;74;21159;-71
2021/07/12 01:24:01;;;;;;;1.52;1.42;;;13.90;99.90;;;;;;1894043;76;21098;-71
2021/07/12 01:26:27;;;;;;;8.83;1.30;;;13.90;99.90;;;;;;1925790;74;21079;-71
2021/07/12 01:28:53;;;;;;;2.22;1.45;;;13.90;99.90;;;;;;1894777;76;21125;-71
2021/07/12 01:31:19;;;;;;;2.83;1.62;;;13.90;99.90;;;;;;1925978;74;21141;-71
2021/07/12 01:33:45;;;;;;;1.42;1.30;;;13.90;99.90;;;;;;1894774;76;21046;-72
2021/07/12 01:36:11;;;;;;;2.55;1.37;;;13.80;99.90;;;;;;1925805;74;21072;-71
2021/07/12 01:38:37;;;;;;;2.47;1.27;;;13.80;99.90;;;;;;1894803;76;21143;-71
2021/07/12 01:41:03;;;;;;;1.52;1.42;;;13.80;99.90;;;;;;1926378;74;21088;-70
2021/07/12 01:43:29;;;;;;;1.62;1.45;;;13.80;99.90;;;;;;1894899;76;21077;-71
2021/07/12 01:45:56;;;;;;;5.30;1.35;;;13.80;99.90;;;;;;1926011;74;21157;-71
2021/07/12 01:48:22;;;;;;;3.80;1.32;;;13.80;99.90;;;;;;1894814;76;21073;-71
2021/07/12 01:50:48;;;;;;;1.87;1.52;;;13.70;99.90;;;;;;1925817;74;21200;-71
2021/07/12 01:53:14;;;;;;;3.30;1.50;;;13.80;99.90;;;;;;1894691;76;21050;-70
2021/07/12 01:55:40;;;;;;;5.95;1.42;;;13.60;99.90;;;;;;1925822;74;21141;-71
2021/07/12 01:58:06;;;;;;;6.25;1.60;;;13.70;99.90;;;;;;1894736;76;21085;-71
2021/07/12 02:00:32;;;;;;;9.25;1.20;;;13.70;99.90;;;;;;1925832;74;21185;-71
2021/07/12 02:02:59;;;;;;;2.45;1.95;;;13.70;99.90;;;;;;1894786;76;21593;-70
2021/07/12 02:05:25;;;;;;;2.12;1.40;;;13.60;99.90;;;;;;1925961;74;21440;-72
2021/07/12 02:07:51;;;;;;;5.15;1.37;;;13.70;99.90;;;;;;1894980;74;21505;-70
2021/07/12 02:10:17;;;;;;;1.62;1.47;;;13.70;99.90;;;;;;1896612;74;21052;-71
2021/07/12 02:12:43;;;;;;;1.20;1.10;;;13.70;99.90;;;;;;1894692;76;21140;-70
2021/07/12 02:15:09;;;;;;;1.40;1.30;;;13.70;99.90;;;;;;1925925;73;21122;-71
2021/07/12 02:17:35;;;;;;;1.80;1.57;;;13.60;99.90;;;;;;1894718;76;21077;-71
2021/07/12 02:20:01;;;;;;;3.80;1.62;;;13.60;99.90;;;;;;1925804;74;21080;-72
2021/07/12 02:22:28;;;;;;;1.32;1.22;;;13.60;99.90;;;;;;1894800;76;21191;-71
2021/07/12 02:24:54;;;;;;;4.08;1.15;;;13.60;99.90;;;;;;1925986;74;21045;-71
2021/07/12 02:27:20;;;;;;;4.30;2.12;;;13.60;99.90;;;;;;1894804;76;21077;-70
2021/07/12 02:29:46;;;;;;;2.62;1.90;;;13.60;99.90;;;;;;1926094;74;21142;-70
2021/07/12 02:32:12;;;;;;;1.52;1.42;;;13.60;99.90;;;;;;1894778;76;21081;-70
2021/07/12 02:34:38;;;;;;;1.60;1.47;;;13.50;99.90;;;;;;1926092;74;21040;-70
2021/07/12 02:37:04;;;;;;;2.45;1.45;;;13.50;99.90;;;;;;1894857;76;21131;-71
2021/07/12 02:39:30;;;;;;;2.25;1.92;;;13.50;99.90;;;;;;1925816;74;21138;-71
2021/07/12 02:41:57;;;;;;;12.50;1.50;;;13.50;99.90;;;;;;1894760;76;21197;-70
2021/07/12 02:44:24;;;;;;;1.42;1.20;;;13.40;99.90;;;;;;1925829;74;21177;-70
2021/07/12 02:46:50;;;;;;;4.45;1.50;;;13.40;99.90;;;;;;1894746;76;21143;-70
2021/07/12 02:49:16;;;;;;;4.37;1.42;;;13.50;99.90;;;;;;1925835;74;21040;-70
2021/07/12 02:51:42;;;;;;;1.60;1.50;;;13.40;99.90;;;;;;1894767;76;21081;-70
2021/07/12 02:54:08;;;;;;;3.45;1.50;;;13.40;99.90;;;;;;1925960;74;21063;-70
2021/07/12 02:56:34;;;;;;;7.20;1.82;;;13.30;99.90;;;;;;1894759;76;21069;-70
2021/07/12 02:59:00;;;;;;;1.50;1.40;;;13.40;99.90;;;;;;1925950;74;21068;-70
2021/07/12 03:01:26;;;;;;;1.30;1.25;;;13.40;99.90;;;;;;1894760;76;21081;-70
2021/07/12 03:03:54;;;;;;;5.90;1.30;;;13.40;99.90;;;;;;1925876;74;21075;-70
2021/07/12 03:06:20;;;;;;;1.42;1.32;;;13.30;99.90;;;;;;1894684;76;21042;-70
2021/07/12 03:08:46;;;;;;;3.10;1.30;;;13.30;99.90;;;;;;1926206;74;21162;-71
2021/07/12 03:11:12;;;;;;;5.22;1.35;;;13.30;99.90;;;;;;1894702;76;21073;-70
2021/07/12 03:13:39;;;;;;;2.58;1.80;;;13.30;99.90;;;;;;1926018;74;21076;-69
2021/07/12 03:16:05;;;;;;;2.52;1.60;;;13.20;99.90;;;;;;1886111;74;21059;-70
2021/07/12 03:18:31;;;;;;;5.67;1.52;;;13.20;99.90;;;;;;1927019;74;21080;-68
2021/07/12 03:20:57;;;;;;;2.62;1.60;;;13.30;99.90;;;;;;1883917;74;21059;-69
2021/07/12 03:23:23;;;;;;;3.85;1.60;;;13.30;99.90;;;;;;1929191;73;21065;-69
2021/07/12 03:25:49;;;;;;;2.08;1.25;;;13.20;99.90;;;;;;1894944;76;21018;-70
2021/07/12 03:28:15;;;;;;;1.42;1.32;;;13.30;99.90;;;;;;1925804;73;21153;-70
2021/07/12 03:30:41;;;;;;;12.50;1.40;;;13.20;99.90;;;;;;1894925;76;21085;-69
2021/07/12 03:33:08;;;;;;;3.20;1.30;;;13.20;99.90;;;;;;1925959;74;21077;-70
2021/07/12 03:35:34;;;;;;;3.45;1.72;;;13.20;99.90;;;;;;1890810;74;21199;-69
2021/07/12 03:38:00;;;;;;;1.90;1.50;;;13.20;99.90;;;;;;1926148;74;21072;-69
2021/07/12 03:40:26;;;;;;;1.60;1.50;;;13.20;99.90;;;;;;1890472;76;21151;-70
2021/07/12 03:42:52;;;;;;;3.12;1.22;;;13.10;99.90;;;;;;1922729;74;21071;-69
2021/07/12 03:45:18;;;;;;;3.22;1.35;;;13.10;99.90;;;;;;1894716;76;21079;-70
2021/07/12 03:47:46;;;;;;;2.40;1.57;;;13.10;99.90;;;;;;1925956;73;21111;-69
2021/07/12 03:50:12;;;;;;;2.08;1.62;;;13.10;99.90;;;;;;1894640;75;21131;-70
2021/07/12 03:52:38;;;;;;;3.60;1.50;;;13.10;99.90;;;;;;1925874;74;21075;-70
2021/07/12 03:55:05;;;;;;;2.35;2.00;;;13.10;99.90;;;;;;1894724;76;21050;-69
2021/07/12 03:57:31;;;;;;;1.98;1.72;;;13.00;99.90;;;;;;1925725;74;21072;-69
2021/07/12 03:59:57;;;;;;;5.80;1.35;;;13.00;99.90;;;;;;1895947;74;21164;-69
2021/07/12 04:02:23;;;;;;;1.70;1.60;;;13.10;99.90;;;;;;1926017;74;21134;-70
2021/07/12 04:04:49;;;;;;;3.50;1.82;;;13.10;99.90;;;;;;1894609;76;21121;-69
2021/07/12 04:07:15;;;;;;;1.70;1.60;;;13.20;99.90;;;;;;1925793;74;21076;-69
2021/07/12 04:09:41;;;;;;;1.85;1.52;;;13.20;99.90;;;;;;1894659;76;21085;-69
2021/07/12 04:12:07;;;;;;;2.05;1.55;;;13.20;99.90;;;;;;1926181;74;21088;-69
2021/07/12 04:14:33;;;;;;;2.30;1.65;;;13.20;99.90;;;;;;1894611;76;21135;-69
2021/07/12 04:17:00;;;;;;;1.85;1.60;;;13.20;99.90;;;;;;1926073;74;21113;-70
2021/07/12 04:19:26;;;;;;;2.35;1.72;;;13.10;99.90;;;;;;1894754;76;21123;-69
2021/07/12 04:21:52;;;;;;;1.75;1.45;;;13.10;99.90;;;;;;1926027;74;21499;-70
2021/07/12 04:24:18;;;;;;;2.83;1.65;;;13.10;99.90;;;;;;1894703;76;21469;-69
2021/07/12 04:26:44;;;;;;;2.58;1.60;;;13.10;99.90;;;;;;1925713;74;21633;-69
2021/07/12 04:29:10;;;;;;;1.92;1.72;;;13.20;99.90;;;;;;1894627;76;21547;-69
2021/07/12 04:31:36;;;;;;;12.70;1.70;;;13.20;99.90;;;;;;1925608;74;21445;-70
2021/07/12 04:34:02;;;;;;;7.87;1.95;;;13.20;99.90;;;;;;1894634;76;21496;-71
2021/07/12 04:36:29;;;;;;;1.50;1.30;;;13.30;99.90;;;;;;1925735;74;21471;-70
2021/07/12 04:38:55;;;;;;;1.70;1.57;;;13.30;99.90;;;;;;1894713;76;21170;-70
2021/07/12 04:41:21;;;;;;;3.42;1.77;;;13.30;99.90;;;;;;1925837;74;21098;-70
2021/07/12 04:43:47;;;;;;;7.25;1.98;;;13.30;99.90;;;;;;1894632;76;21217;-70
2021/07/12 04:46:13;;;;;;;1.67;1.57;;;13.30;99.90;;;;;;1925663;74;21052;-69
2021/07/12 04:48:40;;;;;;;2.85;1.70;;;13.30;99.90;;;;;;1894881;76;21171;-68
2021/07/12 04:51:06;;;;;;;2.85;2.17;;;13.40;99.90;;;;;;1925841;74;21149;-68
2021/07/12 04:53:33;;;;;;;2.90;2.05;;;13.50;99.90;;;;;;1894822;76;21147;-69
2021/07/12 04:55:59;;;;;;;4.05;1.87;;;13.60;99.90;;;;;;1925753;74;21075;-70
2021/07/12 04:58:25;;;;;;;3.17;1.92;;;13.70;99.90;;;;;;1895070;76;21290;-75
2021/07/12 05:00:51;;;;;;;3.12;2.12;;;13.80;99.90;;;;;;1927835;74;21146;-74
2021/07/12 05:03:17;;;;;;;3.05;1.80;;;13.90;99.90;;;;;;1898126;76;21039;-75
2021/07/12 05:05:43;;;;;;;6.28;2.25;;;14.00;99.90;;;;;;1927926;74;21144;-75
2021/07/12 05:08:09;;;;;;;1.87;1.75;;;14.00;99.90;;;;;;1896561;76;21055;-75
2021/07/12 05:10:36;;;;;;;3.83;2.12;;;14.00;99.90;;;;;;1927411;74;21149;-82
2021/07/12 05:13:02;;;;;;;1.87;1.70;;;14.10;99.90;;;;;;1895273;76;21497;-74
2021/07/12 05:15:28;;;;;;;2.87;2.05;;;14.10;99.90;;;;;;1926407;73;21215;-70
2021/07/12 05:17:54;;;;;;;2.75;2.02;;;14.20;99.90;;;;;;1894728;76;21428;-71
2021/07/12 05:20:20;;;;;;;2.60;2.00;;;14.20;99.90;;;;;;1925740;74;21463;-77
2021/07/12 05:22:46;;;;;;;8.93;2.33;;;14.20;99.90;;;;;;1894793;76;21607;-70
2021/07/12 05:25:12;;;;;;;3.90;2.10;;;14.40;99.90;;;;;;1925966;74;21504;-70
2021/07/12 05:27:38;;;;;;;2.08;1.77;;;14.40;99.90;;;;;;1894789;74;21449;-71
2021/07/12 05:30:07;;;;;;;2.67;2.22;;;14.70;99.90;;;;;;1927755;74;21527;-72
2021/07/12 05:32:32;;;;;;;5.55;1.98;;;15.40;99.90;;;;;;1892186;75;21155;-71
2021/07/12 05:34:58;;;;;;;5.17;1.90;;;16.90;99.90;;;;;;1925645;74;21182;-71
2021/07/12 05:37:25;;;;;;;3.80;1.62;;;17.60;99.90;;;;;;1891697;75;21105;-72
2021/07/12 05:39:51;;;;;;;2.00;1.65;;;18.10;99.90;;;;;;1924228;74;21075;-70
2021/07/12 05:42:19;;;;;;;2.42;1.60;;;18.40;99.90;;;;;;1894588;76;21154;-70
2021/07/12 05:44:45;;;;;;;2.27;1.37;;;18.60;99.90;;;;;;1896399;74;21186;-70
2021/07/12 05:47:11;;;;;;;1.77;1.42;;;18.40;99.90;;;;;;1894643;76;21127;-71
2021/07/12 05:49:37;;;;;;;4.35;1.52;;;18.50;99.90;;;;;;1925740;74;21149;-74
2021/07/12 05:52:03;;;;;;;4.87;1.30;;;18.70;99.90;;;;;;1894628;75;21081;-70
2021/07/12 05:54:29;;;;;;;1.20;1.05;;;19.10;99.90;;;;;;1925499;73;21091;-70
2021/07/12 05:56:55;;;;;;;3.05;1.32;;;20.00;99.90;;;;;;1894555;76;21085;-70
2021/07/12 05:59:22;;;;;;;4.20;1.47;;;21.60;99.90;;;;;;1925522;73;21608;-71
2021/07/12 06:01:48;;;;;;;1.60;1.27;;;21.40;99.90;;;;;;1884861;75;21070;-70
2021/07/12 06:04:14;;;;;;;2.17;1.25;;;21.80;99.90;;;;;;1925703;74;21400;-71
2021/07/12 06:06:40;;;;;;;2.17;1.80;;;23.10;99.90;;;;;;1899267;75;21097;-70
2021/07/12 06:09:06;;;;;;;3.08;1.47;;;22.00;99.90;;;;;;1923518;74;21138;-71
2021/07/12 06:11:32;;;;;;;5.12;1.10;;;21.10;99.90;;;;;;1894647;76;21159;-70
2021/07/12 06:13:58;;;;;;;2.33;1.35;;;22.00;99.90;;;;;;1925657;74;21167;-76
2021/07/12 06:16:25;;;;;;;2.17;1.60;;;23.00;99.90;;;;;;1895030;76;21046;-76
2021/07/12 06:18:51;;;;;;;1.45;1.30;;;23.70;99.90;;;;;;1926255;74;21052;-77
2021/07/12 06:21:17;;;;;;;0.90;0.82;;;24.50;99.90;;;;;;1894633;76;21081;-75
2021/07/12 06:23:43;;;;;;;6.87;1.17;;;24.50;99.90;;;;;;1926375;74;21080;-77
2021/07/12 06:26:09;;;;;;;3.22;1.20;;;24.80;99.90;;;;;;1894936;76;21085;-77
2021/07/12 06:31:19;;;;;;;2.42;1.17;;;24.60;99.90;;;;;;1895112;76;21065;-76
2021/07/12 06:33:45;;;;;;;2.60;1.25;;;24.50;99.90;;;;;;1926156;74;21212;-76
2021/07/12 06:36:11;;;;;;;2.15;1.15;;;24.00;99.90;;;;;;1895008;76;21639;-77
2021/07/12 06:38:38;;;;;;;4.28;1.30;;;23.80;99.90;;;;;;1926163;74;21075;-77
2021/07/12 06:41:04;;;;;;;7.08;1.50;;;24.70;99.90;;;;;;1894966;76;21180;-76
2021/07/12 06:43:30;;;;;;;9.23;1.30;;;25.40;99.90;;;;;;1926171;74;21075;-77
2021/07/12 06:45:59;;;;;;;3.15;1.20;;;24.20;99.90;;;;;;1894992;74;21191;-76
2021/07/12 06:48:24;;;;;;;2.08;1.42;;;23.10;99.90;;;;;;1925759;74;21097;-76
2021/07/12 06:50:50;;;;;;;11.33;1.50;;;21.90;99.90;;;;;;1894978;76;21118;-77
2021/07/12 06:53:16;;;;;;;2.22;1.40;;;21.30;99.90;;;;;;1925945;74;21055;-76
2021/07/12 06:55:42;;;;;;;13.45;1.80;;;21.10;99.90;;;;;;1894855;76;21077;-76
2021/07/12 06:58:12;;;;;;;1.62;1.42;;;21.20;99.90;;;;;;1925901;74;21044;-76
2021/07/12 07:00:36;;;;;;;1.70;1.30;;;21.70;99.90;;;;;;1894401;76;21580;-76
2021/07/12 07:03:02;;;;;;;2.83;1.67;;;21.90;99.90;;;;;;1926097;74;21519;-77
2021/07/12 07:05:28;;;;;;;2.70;1.42;;;22.00;99.90;;;;;;1894957;76;21585;-76
2021/07/12 07:07:55;;;;;;;6.35;1.27;;;22.20;99.90;;;;;;1926019;74;21096;-77
2021/07/12 07:10:21;;;;;;;2.83;1.42;;;21.40;99.90;;;;;;1894945;76;21051;-77
2021/07/12 07:12:47;;;;;;;3.15;1.32;;;21.50;99.90;;;;;;1926179;73;21079;-77
2021/07/12 07:15:13;;;;;;;2.77;1.60;;;21.20;99.90;;;;;;1894857;76;21217;-77
2021/07/12 07:17:39;;;;;;;2.33;1.25;;;21.10;99.90;;;;;;1926038;74;21084;-77
2021/07/12 07:20:05;;;;;;;2.65;1.47;;;21.10;99.90;;;;;;1894935;76;21181;-76
2021/07/12 07:22:31;;;;;;;5.75;1.37;;;21.40;99.90;;;;;;1926195;74;21137;-76
2021/07/12 07:24:57;;;;;;;2.30;1.40;;;21.90;99.90;;;;;;1894870;76;21081;-76
2021/07/12 07:27:24;;;;;;;1.82;1.30;;;22.10;99.90;;;;;;1926126;74;21083;-77
2021/07/12 07:29:50;;;;;;;1.95;1.22;;;22.30;99.90;;;;;;1894965;76;21073;-77
2021/07/12 07:32:16;;;;;;;4.55;1.40;;;22.70;99.90;;;;;;1925995;74;21162;-77
2021/07/12 07:34:42;;;;;;;2.33;1.30;;;23.10;99.90;;;;;;1894967;76;21081;-77
2021/07/12 07:37:08;;;;;;;2.50;1.30;;;23.00;99.90;;;;;;1926291;74;21481;-77
2021/07/12 07:39:34;;;;;;;1.15;1.00;;;23.20;99.90;;;;;;1895264;76;21467;-76
2021/07/12 07:42:00;;;;;;;3.22;1.20;;;22.90;99.90;;;;;;1926261;74;21504;-76
2021/07/12 07:44:27;;;;;;;5.25;1.47;;;22.50;99.90;;;;;;1895127;76;21567;-77
2021/07/12 07:46:53;;;;;;;1.77;1.07;;;22.70;99.90;;;;;;1926083;74;21520;-77
2021/07/12 07:49:19;;;;;;;3.12;1.20;;;23.40;99.90;;;;;;1895165;76;21090;-77
2021/07/12 07:51:45;;;;;;;2.60;1.27;;;23.70;99.90;;;;;;1926277;74;21052;-77
2021/07/12 07:54:11;;;;;;;1.70;1.42;;;23.70;99.90;;;;;;1895437;74;21078;-77
2021/07/12 07:56:37;;;;;;;3.22;1.00;;;24.30;99.90;;;;;;1926033;74;21145;-78
2021/07/12 07:59:04;;;;;;;0.70;0.70;;;24.90;99.90;;;;;;1895249;75;21139;-77
2021/07/12 08:01:30;;;;;;;0.65;0.62;;;25.10;99.90;;;;;;1927174;74;21074;-77
2021/07/12 08:03:56;;;;;;;0.40;0.40;;;25.40;99.90;;;;;;1898137;76;21061;-77
2021/07/12 08:06:22;;;;;;;1.12;0.85;;;25.00;99.90;;;;;;1928001;74;21073;-78
2021/07/12 08:08:48;;;;;;;2.02;1.10;;;26.00;99.90;;;;;;1894988;76;21180;-77
2021/07/12 08:11:14;;;;;;;2.05;0.60;;;25.20;99.90;;;;;;1926949;73;21075;-77
2021/07/12 08:13:40;;;;;;;0.65;0.60;;;24.60;99.90;;;;;;1894900;76;21085;-78
2021/07/12 08:16:07;;;;;;;7.80;0.60;;;24.80;99.90;;;;;;1926545;73;21157;-78
2021/07/12 08:18:33;;;;;;;3.12;0.70;;;25.50;99.90;;;;;;1894903;76;21089;-77
2021/07/12 08:20:59;;;;;;;0.65;0.62;;;25.30;99.90;;;;;;1926133;74;21081;-77
2021/07/12 08:23:26;;;;;;;1.17;0.60;;;24.70;99.90;;;;;;1891314;74;21085;-77
2021/07/12 08:25:52;;;;;;;1.12;0.60;;;25.20;99.90;;;;;;1926888;74;21087;-78
2021/07/12 08:28:18;;;;;;;2.67;0.80;;;25.30;99.90;;;;;;1906981;75;21178;-78
2021/07/12 08:30:44;;;;;;;0.62;0.62;;;25.00;99.90;;;;;;1919916;74;21072;-78
2021/07/12 08:33:10;;;;;;;0.60;0.60;;;24.90;99.90;;;;;;1894964;76;21058;-78
2021/07/12 08:35:36;;;;;;;4.00;1.00;;;24.70;99.90;;;;;;1925949;74;21213;-77
2021/07/12 08:38:03;;;;;;;6.03;0.75;;;24.50;99.90;;;;;;1894963;74;21094;-78
2021/07/12 08:40:29;;;;;;;1.00;0.75;;;24.50;99.90;;;;;;1929132;73;21483;-78
2021/07/12 08:42:55;;;;;;;0.60;0.60;;;24.90;99.90;;;;;;1892219;75;21133;-78
2021/07/12 08:45:21;;;;;;;2.98;0.70;;;25.00;99.90;;;;;;1924108;74;21040;-78
2021/07/12 08:47:48;;;;;;;1.82;0.90;;;25.10;99.90;;;;;;1880212;76;21151;-78
2021/07/12 08:50:14;;;;;;;1.25;0.80;;;25.20;99.90;;;;;;1919685;74;21075;-79
2021/07/12 08:52:40;;;;;;;0.78;0.62;;;25.20;99.90;;;;;;1895123;76;21148;-79
2021/07/12 08:55:06;;;;;;;0.70;0.70;;;25.50;99.90;;;;;;1925578;74;21099;-79
2021/07/12 08:57:32;;;;;;;0.72;0.70;;;25.60;99.90;;;;;;1892267;74;21107;-79
2021/07/12 08:59:58;;;;;;;0.68;0.68;;;25.60;99.90;;;;;;1927003;74;21075;-78
2021/07/12 09:02:24;;;;;;;1.32;0.60;;;26.00;99.90;;;;;;1892115;75;21082;-79
2021/07/12 09:04:51;;;;;;;1.25;0.70;;;26.10;99.90;;;;;;1926276;74;21491;-78
2021/07/12 09:07:17;;;;;;;0.60;0.60;;;26.20;99.90;;;;;;1895005;76;21522;-79
2021/07/12 09:09:43;;;;;;;0.85;0.60;;;26.10;99.90;;;;;;1926225;74;21629;-80
2021/07/12 09:12:09;;;;;;;2.47;0.70;;;26.40;99.90;;;;;;1895083;76;21510;-79
2021/07/12 09:14:39;;;;;;;0.50;0.50;;;26.40;99.90;;;;;;1926262;74;21449;-79
2021/07/12 09:17:04;;;;;;;1.15;0.82;;;25.90;99.90;;;;;;1895080;76;21102;-77
2021/07/12 09:19:32;;;;;;;1.82;0.93;;;26.20;99.90;;;;;;1926392;74;21079;-77
2021/07/12 09:21:58;;;;;;;0.72;0.72;;;26.30;99.90;;;;;;1894914;76;21481;-78
2021/07/12 09:24:24;;;;;;;0.80;0.70;;;26.70;99.90;;;;;;1926487;74;21581;-77
2021/07/12 09:26:50;;;;;;;0.70;0.70;;;26.40;99.90;;;;;;1895024;76;21489;-78
2021/07/12 09:29:17;;;;;;;2.75;0.85;;;26.20;99.90;;;;;;1926241;74;21081;-77
2021/07/12 09:31:43;;;;;;;3.17;0.72;;;26.40;99.90;;;;;;1895049;76;21190;-78
2021/07/12 09:34:09;;;;;;;1.67;0.88;;;26.40;99.90;;;;;;1926445;74;21044;-79
2021/07/12 09:36:35;;;;;;;1.00;0.80;;;26.60;99.90;;;;;;1895284;76;21106;-78
2021/07/12 09:39:01;;;;;;;0.95;0.82;;;26.70;99.90;;;;;;1926438;74;21165;-79
2021/07/12 09:41:27;;;;;;;3.75;0.78;;;26.90;99.90;;;;;;1895200;76;21078;-78
2021/07/12 09:43:53;;;;;;;0.62;0.62;;;26.80;99.90;;;;;;1926243;74;21048;-79
2021/07/12 09:46:19;;;;;;;1.00;0.90;;;27.00;99.90;;;;;;1895425;74;21037;-79
2021/07/12 09:48:46;;;;;;;0.80;0.80;;;27.30;99.90;;;;;;1926429;74;21123;-79
2021/07/12 09:51:12;;;;;;;1.15;0.75;;;27.30;99.90;;;;;;1895240;76;21109;-79
2021/07/12 09:53:38;;;;;;;0.62;0.62;;;27.50;99.90;;;;;;1926295;74;21080;-79
2021/07/12 09:56:06;;;;;;;1.30;0.78;;;27.50;99.90;;;;;;1897386;76;21242;-80
2021/07/12 09:58:32;;;;;;;1.10;0.50;;;27.50;99.90;;;;;;1926616;74;21137;-79
2021/07/12 10:00:58;;;;;;;0.60;0.60;;;27.90;99.90;;;;;;1896994;76;21066;-79
2021/07/12 10:03:24;;;;;;;0.60;0.60;;;28.20;99.90;;;;;;1925976;74;21091;-80
2021/07/12 10:05:51;;;;;;;1.60;0.80;;;27.70;99.90;;;;;;1895090;76;21090;-79
2021/07/12 10:08:17;;;;;;;0.80;0.80;;;27.70;99.90;;;;;;1925919;74;21087;-79
2021/07/12 10:10:43;;;;;;;1.42;0.80;;;27.60;99.90;;;;;;1894971;76;21106;-80
2021/07/12 10:13:10;;;;;;;0.72;0.72;;;28.00;99.90;;;;;;1925922;74;21079;-79
2021/07/12 10:15:36;;;;;;;1.07;0.70;;;27.80;99.90;;;;;;1894916;76;21195;-80
2021/07/12 10:18:02;;;;;;;0.60;0.60;;;27.30;99.90;;;;;;1926093;74;21076;-80
2021/07/12 10:20:33;;;;;;;1.87;0.80;;;27.60;99.90;;;;;;1895059;76;21090;-80
2021/07/12 10:22:56;;;;;;;6.03;0.72;;;27.80;99.90;;;;;;1925131;74;21135;-80
2021/07/12 10:25:22;;;;;;;0.70;0.70;;;27.80;99.90;;;;;;1895100;76;21184;-80
2021/07/12 10:27:48;;;;;;;0.95;0.80;;;27.90;99.90;;;;;;1926445;74;21087;-80
2021/07/12 10:30:14;;;;;;;0.60;0.60;;;28.00;99.90;;;;;;1894923;76;21045;-80
2021/07/12 10:32:40;;;;;;;2.83;0.70;;;27.90;99.90;;;;;;1926670;74;21048;-82
2021/07/12 10:35:07;;;;;;;2.35;0.90;;;28.10;99.90;;;;;;1895076;76;21095;-82
2021/07/12 10:37:35;;;;;;;0.60;0.60;;;28.00;99.90;;;;;;1926982;74;21080;-83
2021/07/12 10:40:11;;;;;;;2.35;1.77;;;27.70;99.90;;;;;;1895437;76;21171;-82
2021/07/12 10:42:37;;;;;;;2.02;0.98;;;27.70;99.90;;;;;;1926193;74;21594;-82
2021/07/12 10:45:03;;;;;;;1.10;0.70;;;27.60;99.90;;;;;;1895394;74;21508;-82
2021/07/12 10:47:29;;;;;;;1.45;0.50;;;27.50;99.90;;;;;;1926161;74;21499;-83
2021/07/12 10:49:55;;;;;;;0.75;0.70;;;27.40;99.90;;;;;;1894919;76;21641;-83
2021/07/12 10:52:22;;;;;;;2.12;0.70;;;27.60;99.90;;;;;;1926001;74;21041;-83
2021/07/12 10:54:48;;;;;;;0.70;0.70;;;27.80;99.90;;;;;;1895001;76;21105;-82
2021/07/12 10:57:14;;;;;;;0.68;0.68;;;28.40;99.90;;;;;;1926165;74;21071;-83
2021/07/12 10:59:40;;;;;;;0.90;0.70;;;28.70;99.90;;;;;;1894819;76;21085;-82
2021/07/12 11:02:07;;;;;;;1.00;0.88;;;28.90;99.90;;;;;;1926144;74;21052;-83
2021/07/12 11:04:33;;;;;;;0.95;0.68;;;28.70;99.90;;;;;;1894852;76;21073;-83
2021/07/12 11:06:59;;;;;;;0.62;0.50;;;28.80;99.90;;;;;;1926362;74;21145;-83
2021/07/12 11:09:25;;;;;;;0.65;0.60;;;28.70;99.90;;;;;;1894803;74;21490;-82
2021/07/12 11:11:51;;;;;;;0.53;0.53;;;28.60;99.90;;;;;;1925920;74;21444;-83
2021/07/12 11:14:17;;;;;;;0.68;0.68;;;28.10;99.90;;;;;;1894954;76;21555;-83
2021/07/12 11:16:48;;;;;;;0.80;0.50;;;27.90;99.90;;;;;;1926368;74;21484;-82
2021/07/12 11:19:11;;;;;;;0.60;0.60;;;28.00;99.90;;;;;;1893748;76;21098;-83
2021/07/12 11:21:37;;;;;;;0.55;0.55;;;27.70;99.90;;;;;;1926503;74;21032;-83
2021/07/12 11:24:03;;;;;;;0.75;0.70;;;27.50;99.90;;;;;;1895084;76;21098;-84
2021/07/12 11:26:33;;;;;;;3.20;0.78;;;28.00;99.90;;;;;;1926592;74;21150;-83
2021/07/12 11:28:59;;;;;;;0.50;0.50;;;28.40;99.90;;;;;;1895475;76;21102;-84
2021/07/12 11:31:25;;;;;;;0.80;0.80;;;28.90;99.90;;;;;;1925661;74;21113;-83
2021/07/12 11:33:52;;;;;;;2.05;0.78;;;29.00;99.90;;;;;;1895597;76;21193;-84
2021/07/12 11:36:19;;;;;;;1.22;1.00;;;29.60;99.90;;;;;;1926871;73;21142;-84
2021/07/12 11:38:47;;;;;;;1.60;0.80;;;29.40;99.90;;;;;;1892608;74;21122;-84
2021/07/12 11:41:13;;;;;;;0.60;0.60;;;28.90;99.90;;;;;;1926355;74;21053;-83
2021/07/12 11:43:39;;;;;;;0.60;0.60;;;28.90;99.90;;;;;;1901146;74;21149;-84
2021/07/12 11:46:07;;;;;;;0.98;0.60;;;28.90;99.90;;;;;;1958613;73;21508;-84
2021/07/12 11:48:34;;;;;;;0.60;0.60;;;29.10;99.90;;;;;;1896868;75;21082;-83
2021/07/12 11:51:00;;;;;;;0.50;0.50;;;28.70;99.90;;;;;;1921384;74;21091;-83
2021/07/12 11:53:26;;;;;;;1.00;0.80;;;29.10;99.90;;;;;;1895785;76;21137;-83
2021/07/12 11:55:52;;;;;;;0.68;0.60;;;29.20;99.90;;;;;;1926822;74;21192;-83
2021/07/12 11:58:18;;;;;;;3.77;0.75;;;29.30;99.90;;;;;;1895886;76;21152;-83
2021/07/12 12:00:45;;;;;;;0.70;0.70;;;29.20;99.90;;;;;;1926093;74;21044;-84
2021/07/12 12:03:11;;;;;;;1.98;0.82;;;28.90;99.90;;;;;;1896109;74;21078;-84
2021/07/12 12:05:37;;;;;;;0.72;0.60;;;28.90;99.90;;;;;;1926241;73;21083;-83
2021/07/12 12:08:04;;;;;;;2.25;0.90;;;28.60;99.90;;;;;;1895629;76;21073;-84
2021/07/12 12:10:30;;;;;;;0.53;0.50;;;28.80;99.90;;;;;;1926684;73;21049;-84
2021/07/12 12:12:57;;;;;;;0.72;0.72;;;29.00;99.90;;;;;;1895854;74;21127;-84
2021/07/12 12:15:23;;;;;;;0.75;0.75;;;28.20;99.90;;;;;;1926771;73;21080;-83
2021/07/12 12:17:50;;;;;;;0.75;0.53;;;28.30;99.90;;;;;;1895578;76;21105;-84
2021/07/12 12:20:16;;;;;;;1.82;0.65;;;28.40;99.90;;;;;;1926818;74;21213;-83
2021/07/12 12:22:42;;;;;;;5.15;0.90;;;28.70;99.90;;;;;;1895656;76;21180;-84
2021/07/12 12:25:08;;;;;;;0.70;0.70;;;29.30;99.90;;;;;;1927361;74;21025;-85
2021/07/12 12:27:34;;;;;;;4.25;0.85;;;28.70;99.90;;;;;;1898112;76;21059;-83
2021/07/12 12:30:00;;;;;;;2.45;0.80;;;29.00;99.90;;;;;;1929333;74;21091;-84
2021/07/12 12:32:26;;;;;;;1.70;0.90;;;29.10;99.90;;;;;;1895608;76;21169;-84
2021/07/12 12:34:53;;;;;;;3.67;0.98;;;29.30;99.90;;;;;;1926887;74;21052;-83
2021/07/12 12:37:19;;;;;;;0.50;0.50;;;29.50;99.90;;;;;;1895361;76;21053;-84
2021/07/12 12:39:45;;;;;;;1.65;0.78;;;29.70;99.90;;;;;;1926794;74;21120;-83
2021/07/12 12:42:11;;;;;;;0.68;0.60;;;30.10;99.90;;;;;;1894957;76;21521;-84